Página principal
METAR-TAF:

METAR-TAF

Aeroportos :

Amã, Jordânia

latitude: 31-59N, longitude: 035-59E, altura: 767 m

Observação actual do tempo

O boletim foi feito há 22 minutos, às 23:00 UTC
Vento 3 kt de este
Temperatura 11°C
Humidade 35%
Pressão 1021 hPa
Visibilidade: 5000 m
bruma

METAR: OJAM 122300Z 08003KT 5000 HZ NSC 11/M04 Q1021 NOSIG

Hora: 01:22 (23:22 UTC)

Previsão

O boletim foi feito há 6 horas e 32 minutos, às 16:50 UTC
Previsão válida de 12 às 18 UTC a 13 às 24 UTC
Vento 2 kt com direcção variável
Visibilidade: 4000 m
bruma
Tornando-se
de 13 às 07 UTC a 13 às 09 UTC
Vento 12 kt de oes-noroeste
Poucas nuvensa uma altura de 3000 ft

TAF: OJAM 121650Z 1218/1324 VRB02KT 4000 HZ NSC BECMG 1307/1309 29012KT FEW030

Observações e previsões do tempo de mais de 4000 aeroportos (mensagens METAR e TAF).

As estações disponíveis são os pontos amarelos e vermelhos sobre o mapa.

Mova o rato sobre o mapa para ver o nome da estação.

Depois clique no ponto para visualizar as observações e previsões meteorológicas.

Para alterar o mapa : clique nos botões verdes com uma cruz preta para aumentar o zoom; no botão verde com uma pitada de zoom; ou nas setas verdes para mapas adjacentes.


METAR-TAF: